createdAt,value
2022-10-08T00:06:24.574Z,1.17
2022-10-08T00:16:29.732Z,0.97
2022-10-08T00:26:42.638Z,1.10
2022-10-08T00:36:47.482Z,1.10
2022-10-08T00:46:52.205Z,0.90
2022-10-08T00:56:56.316Z,1.00
2022-10-08T01:07:12.433Z,0.90
2022-10-08T01:17:24.251Z,1.20
2022-10-08T01:27:33.844Z,1.00
2022-10-08T01:37:40.273Z,1.00
2022-10-08T01:47:47.045Z,1.07
2022-10-08T01:57:51.566Z,0.90
2022-10-08T02:07:56.463Z,1.10
2022-10-08T02:18:08.050Z,1.00
2022-10-08T02:28:19.503Z,1.23
2022-10-08T02:38:27.519Z,1.00
2022-10-08T02:48:34.170Z,1.17
2022-10-08T02:58:37.186Z,1.07
2022-10-08T03:08:44.512Z,1.20
2022-10-08T03:18:48.019Z,1.00
2022-10-08T03:28:53.219Z,0.93
2022-10-08T03:38:56.359Z,1.13
2022-10-08T03:49:00.638Z,1.07
2022-10-08T03:59:03.756Z,1.00
2022-10-08T04:09:08.012Z,1.13
2022-10-08T04:19:12.167Z,1.10
2022-10-08T04:29:16.582Z,0.90
2022-10-08T04:39:19.350Z,0.90
2022-10-08T04:49:24.769Z,1.20
2022-10-08T04:59:27.621Z,0.90
2022-10-08T05:09:31.871Z,1.03
2022-10-08T05:19:35.533Z,0.90
2022-10-08T05:29:39.805Z,0.77
2022-10-08T05:39:42.849Z,0.90
2022-10-08T05:49:46.872Z,0.90
2022-10-08T05:59:49.761Z,0.80
2022-10-08T06:09:54.072Z,0.97
2022-10-08T06:19:57.038Z,0.77
2022-10-08T06:30:01.291Z,0.70
2022-10-08T06:40:04.553Z,0.90
2022-10-08T06:50:09.266Z,0.53
2022-10-08T07:00:12.991Z,0.60
2022-10-08T07:10:18.591Z,0.80
2022-10-08T07:20:21.797Z,0.93
2022-10-08T07:30:27.949Z,0.87
2022-10-08T07:40:31.047Z,1.13
2022-10-08T07:50:35.231Z,1.00
2022-10-08T08:00:39.994Z,1.20
2022-10-08T08:10:44.522Z,1.10
2022-10-08T08:20:47.412Z,1.77
2022-10-08T08:30:51.682Z,1.77
2022-10-08T08:40:57.333Z,2.00
2022-10-08T08:51:04.403Z,2.33
2022-10-08T09:01:18.499Z,2.47
2022-10-08T09:11:25.102Z,2.50
2022-10-08T09:21:31.305Z,1.97
2022-10-08T09:31:42.515Z,1.87
2022-10-08T09:41:46.169Z,1.97
2022-10-08T09:51:51.885Z,1.53
2022-10-08T10:01:55.110Z,1.27
2022-10-08T10:12:04.927Z,1.50
2022-10-08T10:22:15.094Z,1.10
2022-10-08T10:32:23.902Z,1.70
2022-10-08T10:42:34.174Z,1.63
2022-10-08T10:52:52.333Z,1.23
2022-10-08T11:03:00.039Z,1.30
2022-10-08T11:13:17.962Z,1.00
2022-10-08T11:23:39.530Z,0.90
2022-10-08T11:33:45.783Z,0.93
2022-10-08T11:43:55.739Z,0.90
2022-10-08T11:54:08.135Z,1.47
2022-10-08T12:04:20.936Z,0.73
2022-10-08T12:14:49.457Z,0.90
2022-10-08T12:24:55.844Z,1.03
2022-10-08T12:35:04.788Z,0.63
2022-10-08T12:45:14.379Z,0.70
2022-10-08T12:55:22.586Z,0.63
2022-10-08T13:05:27.752Z,0.80
2022-10-08T13:15:33.564Z,0.80
2022-10-08T13:25:38.686Z,1.10
2022-10-08T13:35:44.158Z,0.90
2022-10-08T13:45:47.183Z,0.70
2022-10-08T13:55:51.754Z,0.50
2022-10-08T14:05:54.744Z,0.50
2022-10-08T14:15:59.038Z,0.80
2022-10-08T14:26:01.928Z,0.63
2022-10-08T14:36:08.657Z,0.50
2022-10-08T14:46:11.593Z,0.60
2022-10-08T14:56:15.911Z,0.60
2022-10-08T15:06:18.875Z,0.60
2022-10-08T15:16:23.351Z,0.70
2022-10-08T15:26:27.038Z,0.40
2022-10-08T15:36:33.136Z,0.50
2022-10-08T15:46:36.231Z,0.53
2022-10-08T15:56:40.699Z,0.60
2022-10-08T16:06:45.294Z,0.50
2022-10-08T16:16:50.178Z,0.80
2022-10-08T16:26:53.506Z,1.23
2022-10-08T16:36:59.669Z,0.70
2022-10-08T16:47:02.664Z,0.70
2022-10-08T16:57:06.999Z,0.80
2022-10-08T17:07:09.803Z,0.60
2022-10-08T17:17:14.796Z,0.90
2022-10-08T17:27:17.776Z,1.40
2022-10-08T17:37:21.931Z,1.20
2022-10-08T17:47:29.047Z,1.20
2022-10-08T17:57:33.594Z,1.13
2022-10-08T18:07:36.521Z,0.80
2022-10-08T18:17:40.911Z,1.40
2022-10-08T18:27:43.799Z,1.10
2022-10-08T18:37:48.630Z,1.03
2022-10-08T18:47:51.553Z,1.10
2022-10-08T18:57:56.139Z,1.50
2022-10-08T19:07:59.103Z,1.70
2022-10-08T19:18:03.632Z,1.77
2022-10-08T19:28:06.597Z,2.70
2022-10-08T19:38:11.123Z,2.90
2022-10-08T19:48:14.110Z,3.30
2022-10-08T19:58:18.592Z,2.30
2022-10-08T20:08:21.613Z,2.07
2022-10-08T20:18:25.730Z,1.70
2022-10-08T20:28:28.734Z,2.67
2022-10-08T20:38:33.144Z,3.03
2022-10-08T20:48:37.604Z,3.00
2022-10-08T20:58:42.264Z,3.13
2022-10-08T21:08:47.412Z,2.47
2022-10-08T21:18:53.069Z,3.00
2022-10-08T21:28:57.837Z,3.47
2022-10-08T21:39:03.853Z,4.00
2022-10-08T21:49:09.854Z,2.73
2022-10-08T21:59:16.482Z,2.90
2022-10-08T22:09:22.293Z,2.97
2022-10-08T22:19:26.670Z,3.03
2022-10-08T22:29:29.431Z,2.90
2022-10-08T22:39:33.569Z,2.57
2022-10-08T22:49:36.604Z,2.83
2022-10-08T22:59:41.050Z,3.00
2022-10-08T23:09:43.837Z,2.30
2022-10-08T23:19:48.094Z,3.47
2022-10-08T23:29:51.057Z,3.10
2022-10-08T23:39:57.918Z,1.90
2022-10-08T23:50:01.122Z,2.07
